createdAt,value
2018-07-21T00:00:57.318Z,3.90
2018-07-21T00:03:25.650Z,3.67
2018-07-21T00:05:53.324Z,3.73
2018-07-21T00:08:21.568Z,3.80
2018-07-21T00:10:49.307Z,3.50
2018-07-21T00:13:16.960Z,3.80
2018-07-21T00:15:44.511Z,3.37
2018-07-21T00:18:12.177Z,4.17
2018-07-21T00:20:39.882Z,4.27
2018-07-21T00:23:07.684Z,3.63
2018-07-21T00:25:35.246Z,4.13
2018-07-21T00:28:02.904Z,4.07
2018-07-21T00:30:31.110Z,3.63
2018-07-21T00:32:58.672Z,3.77
2018-07-21T00:35:26.398Z,3.63
2018-07-21T00:37:54.039Z,4.20
2018-07-21T00:40:21.602Z,3.80
2018-07-21T00:42:49.266Z,3.80
2018-07-21T00:45:16.946Z,4.63
2018-07-21T00:47:44.529Z,3.87
2018-07-21T00:50:12.078Z,5.83
2018-07-21T00:52:39.715Z,4.07
2018-07-21T00:55:07.426Z,3.77
2018-07-21T00:57:35.095Z,4.00
2018-07-21T01:00:02.814Z,3.70
2018-07-21T01:02:30.389Z,4.63
2018-07-21T01:04:57.929Z,3.90
2018-07-21T01:07:25.592Z,3.73
2018-07-21T01:09:53.282Z,4.83
2018-07-21T01:12:21.012Z,4.33
2018-07-21T01:14:48.596Z,4.30
2018-07-21T01:17:16.287Z,3.47
2018-07-21T01:19:43.961Z,3.93
2018-07-21T01:22:11.570Z,4.20
2018-07-21T01:24:39.141Z,3.80
2018-07-21T01:27:06.808Z,3.73
2018-07-21T01:29:34.447Z,3.53
2018-07-21T01:32:02.178Z,3.87
2018-07-21T01:34:29.785Z,3.67
2018-07-21T01:36:57.338Z,3.63
2018-07-21T01:39:24.985Z,3.90
2018-07-21T01:41:52.556Z,3.73
2018-07-21T01:44:20.743Z,3.83
2018-07-21T01:46:48.434Z,3.60
2018-07-21T01:49:16.025Z,3.60
2018-07-21T01:51:43.726Z,3.87
2018-07-21T01:54:11.313Z,3.67
2018-07-21T01:56:38.974Z,4.07
2018-07-21T01:59:07.186Z,3.17
2018-07-21T02:01:34.998Z,3.40
2018-07-21T02:04:02.565Z,7.07
2018-07-21T02:06:30.114Z,3.77
2018-07-21T02:08:57.779Z,3.33
2018-07-21T02:11:25.414Z,3.83
2018-07-21T02:13:53.061Z,2.93
2018-07-21T02:16:21.112Z,3.50
2018-07-21T02:18:48.662Z,3.40
2018-07-21T02:21:16.237Z,3.43
2018-07-21T02:23:43.984Z,3.23
2018-07-21T02:26:11.536Z,3.63
2018-07-21T02:28:39.210Z,4.23
2018-07-21T02:31:06.878Z,3.60
2018-07-21T02:33:34.639Z,3.37
2018-07-21T02:36:02.210Z,3.53
2018-07-21T02:38:29.870Z,3.70
2018-07-21T02:40:57.417Z,3.57
2018-07-21T02:43:24.974Z,3.37
2018-07-21T02:45:52.548Z,3.57
2018-07-21T02:48:20.122Z,3.50
2018-07-21T02:50:47.673Z,3.70
2018-07-21T02:53:15.241Z,3.60
2018-07-21T02:55:42.995Z,3.60
2018-07-21T02:58:10.668Z,3.93
2018-07-21T03:00:38.213Z,2.93
2018-07-21T03:03:05.774Z,6.27
2018-07-21T03:05:33.323Z,3.20
2018-07-21T03:08:00.873Z,3.40
2018-07-21T03:10:28.510Z,3.90
2018-07-21T03:12:56.062Z,2.90
2018-07-21T03:15:23.614Z,3.50
2018-07-21T03:17:51.161Z,3.23
2018-07-21T03:20:18.858Z,3.27
2018-07-21T03:22:46.522Z,3.33
2018-07-21T03:25:14.174Z,3.23
2018-07-21T03:27:41.833Z,3.47
2018-07-21T03:30:09.377Z,3.67
2018-07-21T03:32:36.999Z,3.60
2018-07-21T03:35:04.711Z,3.40
2018-07-21T03:37:32.274Z,3.10
2018-07-21T03:39:59.826Z,3.57
2018-07-21T03:42:27.345Z,3.67
2018-07-21T03:44:54.893Z,3.90
2018-07-21T03:47:22.443Z,3.47
2018-07-21T03:49:49.985Z,3.10
2018-07-21T03:52:17.662Z,3.47
2018-07-21T03:54:45.244Z,3.30
2018-07-21T03:57:12.903Z,3.03
2018-07-21T03:59:40.462Z,3.07
2018-07-21T04:02:08.159Z,2.80
2018-07-21T04:04:35.735Z,2.93
2018-07-21T04:07:03.589Z,3.30
2018-07-21T04:09:31.147Z,3.40
2018-07-21T04:11:58.681Z,3.03
2018-07-21T04:14:26.447Z,3.23
2018-07-21T04:16:53.976Z,3.10
2018-07-21T04:19:21.537Z,3.63
2018-07-21T04:21:49.215Z,3.37
2018-07-21T04:24:16.917Z,3.17
2018-07-21T04:26:44.618Z,3.30
2018-07-21T04:29:12.173Z,2.57
2018-07-21T04:31:39.730Z,3.30
2018-07-21T04:34:07.358Z,3.30
2018-07-21T04:36:35.244Z,3.60
2018-07-21T04:39:03.077Z,2.77
2018-07-21T04:41:30.737Z,3.63
2018-07-21T04:43:58.423Z,3.33
2018-07-21T04:46:26.222Z,2.87
2018-07-21T04:48:53.770Z,3.67
2018-07-21T04:51:21.348Z,3.17
2018-07-21T04:53:48.953Z,2.93
2018-07-21T04:56:16.523Z,2.93
2018-07-21T04:58:44.162Z,3.07
2018-07-21T05:01:11.826Z,3.27
2018-07-21T05:03:39.394Z,3.43
2018-07-21T05:06:07.055Z,3.03
2018-07-21T05:08:34.609Z,3.17
2018-07-21T05:11:02.183Z,3.17
2018-07-21T05:13:29.842Z,2.70
2018-07-21T05:15:57.522Z,2.93
2018-07-21T05:18:25.066Z,3.07
2018-07-21T05:20:52.610Z,3.23
2018-07-21T05:23:20.158Z,3.40
2018-07-21T05:25:47.831Z,3.63
2018-07-21T05:28:15.455Z,2.93
2018-07-21T05:30:43.010Z,3.03
2018-07-21T05:33:10.575Z,3.00
2018-07-21T05:35:38.252Z,3.00
2018-07-21T05:38:05.834Z,2.63
2018-07-21T05:40:33.432Z,3.13
2018-07-21T05:43:01.017Z,2.70
2018-07-21T05:45:28.914Z,3.27
2018-07-21T05:47:56.953Z,2.93
2018-07-21T05:50:24.526Z,2.60
2018-07-21T05:52:52.073Z,2.77
2018-07-21T05:55:19.849Z,2.93
2018-07-21T05:57:47.400Z,2.60
2018-07-21T06:00:14.980Z,2.73
2018-07-21T06:02:42.833Z,2.50
2018-07-21T06:05:10.377Z,2.60
2018-07-21T06:07:37.901Z,2.70
2018-07-21T06:10:05.599Z,2.77
2018-07-21T06:12:33.144Z,4.10
2018-07-21T06:15:00.794Z,2.83
2018-07-21T06:17:28.337Z,2.93
2018-07-21T06:19:56.108Z,2.70
2018-07-21T06:22:23.646Z,3.40
2018-07-21T06:24:51.438Z,3.37
2018-07-21T06:27:19.009Z,3.00
2018-07-21T06:29:46.806Z,2.80
2018-07-21T06:32:14.361Z,2.77
2018-07-21T06:34:41.953Z,2.63
2018-07-21T06:37:09.594Z,3.70
2018-07-21T06:39:37.129Z,2.90
2018-07-21T06:42:04.793Z,3.17
2018-07-21T06:44:32.349Z,3.20
2018-07-21T06:46:59.995Z,3.53
2018-07-21T06:49:27.966Z,2.90
2018-07-21T06:51:55.612Z,2.90
2018-07-21T06:54:23.331Z,2.93
2018-07-21T06:56:50.901Z,3.20
2018-07-21T06:59:18.429Z,2.77
2018-07-21T07:01:46.506Z,3.43
2018-07-21T07:04:14.033Z,3.80
2018-07-21T07:06:41.596Z,3.13
2018-07-21T07:09:10.168Z,3.07
2018-07-21T07:11:38.061Z,3.40
2018-07-21T07:14:05.835Z,3.00
2018-07-21T07:16:33.358Z,3.37
2018-07-21T07:19:00.918Z,3.40
2018-07-21T07:24:02.758Z,2.70
2018-07-21T07:26:30.398Z,4.50
2018-07-21T07:28:57.962Z,3.90
2018-07-21T07:31:25.682Z,3.77
2018-07-21T07:33:53.238Z,3.30
2018-07-21T07:36:20.949Z,4.17
2018-07-21T07:38:48.494Z,4.13
2018-07-21T07:41:16.017Z,3.57
2018-07-21T07:43:43.659Z,3.50
2018-07-21T07:46:11.216Z,4.40
2018-07-21T07:48:38.749Z,4.77
2018-07-21T07:51:06.313Z,5.03
2018-07-21T07:53:33.861Z,3.70
2018-07-21T07:56:01.507Z,3.53
2018-07-21T07:58:29.145Z,3.73
2018-07-21T08:00:56.687Z,4.57
2018-07-21T08:03:24.641Z,27.90
2018-07-21T08:05:52.282Z,18.40
2018-07-21T08:08:19.941Z,12.23
2018-07-21T08:10:47.457Z,9.13
2018-07-21T08:13:14.999Z,4.80
2018-07-21T08:15:42.619Z,4.30
2018-07-21T08:18:10.222Z,4.53
2018-07-21T08:20:37.850Z,3.80
2018-07-21T08:23:05.382Z,4.10
2018-07-21T08:25:32.918Z,3.80
2018-07-21T08:28:00.586Z,3.43
2018-07-21T08:30:28.118Z,2.80
2018-07-21T08:32:55.642Z,3.33
2018-07-21T08:35:23.294Z,2.77
2018-07-21T08:37:50.922Z,2.87
2018-07-21T08:40:18.486Z,2.90
2018-07-21T08:42:46.024Z,2.80
2018-07-21T08:45:13.561Z,2.80
2018-07-21T08:47:41.182Z,3.20
2018-07-21T08:50:08.714Z,2.83
2018-07-21T08:52:36.349Z,3.10
2018-07-21T08:55:03.881Z,3.00
2018-07-21T08:57:31.421Z,2.80
2018-07-21T08:59:58.947Z,3.63
2018-07-21T09:02:26.616Z,2.67
2018-07-21T09:04:54.290Z,2.73
2018-07-21T09:07:21.812Z,2.97
2018-07-21T09:09:49.341Z,2.60
2018-07-21T09:12:16.869Z,3.03
2018-07-21T09:14:44.534Z,3.07
2018-07-21T09:17:12.050Z,3.40
2018-07-21T09:19:39.630Z,2.93
2018-07-21T09:22:07.163Z,3.40
2018-07-21T09:24:34.775Z,2.93
2018-07-21T09:27:02.321Z,2.97
2018-07-21T09:29:29.846Z,2.77
2018-07-21T09:31:57.485Z,2.80
2018-07-21T09:34:25.005Z,3.43
2018-07-21T09:36:52.567Z,3.23
2018-07-21T09:39:20.190Z,3.03
2018-07-21T09:41:47.721Z,3.10
2018-07-21T09:44:15.339Z,3.27
2018-07-21T09:46:42.980Z,2.73
2018-07-21T09:49:10.567Z,2.63
2018-07-21T09:51:38.135Z,2.87
2018-07-21T09:54:05.893Z,3.33
2018-07-21T09:56:33.449Z,3.03
2018-07-21T09:59:00.982Z,3.37
2018-07-21T10:01:28.581Z,3.03
2018-07-21T10:03:56.367Z,3.13
2018-07-21T10:06:24.009Z,3.07
2018-07-21T10:08:51.557Z,2.90
2018-07-21T10:11:19.081Z,2.53
2018-07-21T10:13:53.162Z,2.73
2018-07-21T10:16:20.789Z,2.80
2018-07-21T10:18:48.312Z,2.10
2018-07-21T10:21:15.947Z,2.37
2018-07-21T10:23:43.510Z,3.10
2018-07-21T10:26:16.686Z,2.43
2018-07-21T10:29:19.110Z,2.40
2018-07-21T10:31:46.663Z,2.90
2018-07-21T10:34:14.207Z,3.63
2018-07-21T10:36:41.760Z,2.73
2018-07-21T10:39:10.750Z,3.17
2018-07-21T10:41:38.305Z,3.30
2018-07-21T10:44:05.955Z,3.17
2018-07-21T10:46:33.976Z,2.97
2018-07-21T10:49:01.542Z,3.50
2018-07-21T10:51:29.250Z,2.53
2018-07-21T10:53:56.781Z,2.63
2018-07-21T10:56:24.318Z,3.33
2018-07-21T10:58:52.077Z,3.03
2018-07-21T11:01:19.637Z,3.17
2018-07-21T11:03:47.294Z,3.50
2018-07-21T11:06:14.833Z,3.40
2018-07-21T11:08:42.619Z,2.90
2018-07-21T11:11:10.270Z,2.93
2018-07-21T11:13:37.914Z,3.57
2018-07-21T11:16:05.511Z,2.83
2018-07-21T11:18:33.177Z,2.60
2018-07-21T11:21:00.718Z,3.10
2018-07-21T11:23:28.257Z,3.57
2018-07-21T11:25:55.898Z,2.83
2018-07-21T11:28:23.511Z,2.87
2018-07-21T11:30:51.149Z,3.00
2018-07-21T11:33:18.714Z,3.33
2018-07-21T11:35:46.441Z,3.33
2018-07-21T11:38:13.842Z,3.13
2018-07-21T11:40:41.492Z,3.40
2018-07-21T11:43:09.058Z,3.83
2018-07-21T11:45:36.635Z,3.10
2018-07-21T11:48:04.635Z,3.20
2018-07-21T11:50:32.201Z,4.72
2018-07-21T11:52:59.765Z,4.57
2018-07-21T11:55:27.405Z,3.43
2018-07-21T11:57:55.047Z,3.30
2018-07-21T12:00:22.606Z,3.10
2018-07-21T12:02:50.292Z,3.50
2018-07-21T12:05:17.998Z,3.03
2018-07-21T12:07:45.554Z,3.07
2018-07-21T12:10:13.093Z,3.27
2018-07-21T12:12:40.674Z,3.20
2018-07-21T12:15:08.233Z,3.33
2018-07-21T12:17:35.770Z,3.40
2018-07-21T12:20:03.345Z,3.00
2018-07-21T12:22:30.893Z,2.83
2018-07-21T12:24:58.475Z,3.07
2018-07-21T12:27:26.129Z,2.93
2018-07-21T12:29:53.867Z,2.90
2018-07-21T12:32:21.397Z,2.50
2018-07-21T12:34:50.085Z,2.40
2018-07-21T12:37:17.760Z,2.93
2018-07-21T12:39:45.418Z,2.83
2018-07-21T12:42:12.943Z,2.60
2018-07-21T12:44:40.482Z,3.00
2018-07-21T12:47:08.056Z,2.87
2018-07-21T12:49:35.617Z,2.63
2018-07-21T12:52:03.193Z,2.67
2018-07-21T12:54:31.009Z,2.43
2018-07-21T12:56:58.570Z,2.27
2018-07-21T12:59:26.159Z,2.00
2018-07-21T13:01:53.711Z,2.37
2018-07-21T13:04:21.262Z,2.50
2018-07-21T13:06:48.815Z,7.23
2018-07-21T13:09:16.482Z,173.10
2018-07-21T13:11:44.035Z,384.20
2018-07-21T13:14:11.574Z,451.87
2018-07-21T13:16:39.175Z,328.10
2018-07-21T13:19:07.125Z,113.17
2018-07-21T13:21:34.835Z,36.43
2018-07-21T13:24:02.690Z,23.80
2018-07-21T13:26:30.665Z,17.47
2018-07-21T13:28:58.250Z,13.93
2018-07-21T13:31:25.826Z,7.27
2018-07-21T13:33:53.346Z,4.13
2018-07-21T13:36:21.011Z,3.07
2018-07-21T13:38:48.676Z,2.63
2018-07-21T13:41:16.459Z,3.10
2018-07-21T13:43:44.980Z,3.40
2018-07-21T13:46:12.615Z,2.47
2018-07-21T13:48:40.266Z,2.50
2018-07-21T13:51:07.940Z,5.13
2018-07-21T13:53:35.668Z,2.27
2018-07-21T13:56:03.371Z,2.40
2018-07-21T13:58:31.575Z,3.00
2018-07-21T14:00:59.221Z,2.50
2018-07-21T14:03:26.863Z,2.47
2018-07-21T14:05:54.529Z,2.70
2018-07-21T14:08:22.158Z,2.17
2018-07-21T14:10:49.813Z,2.23
2018-07-21T14:13:17.446Z,2.40
2018-07-21T14:15:45.107Z,2.40
2018-07-21T14:18:12.830Z,2.60
2018-07-21T14:20:40.485Z,2.30
2018-07-21T14:23:08.122Z,2.60
2018-07-21T14:25:35.804Z,2.70
2018-07-21T14:28:03.474Z,2.57
2018-07-21T14:30:31.158Z,2.40
2018-07-21T14:32:58.870Z,2.93
2018-07-21T14:35:26.510Z,1.97
2018-07-21T14:37:54.730Z,3.80
2018-07-21T14:40:22.531Z,2.40
2018-07-21T14:42:51.211Z,2.50
2018-07-21T14:45:19.754Z,2.10
2018-07-21T14:47:48.493Z,2.70
2018-07-21T14:50:16.224Z,2.87
2018-07-21T14:52:44.575Z,2.50
2018-07-21T14:55:12.237Z,3.50
2018-07-21T14:57:39.886Z,2.53
2018-07-21T15:00:07.621Z,2.43
2018-07-21T15:02:35.317Z,2.40
2018-07-21T15:05:03.114Z,2.50
2018-07-21T15:07:30.944Z,2.67
2018-07-21T15:09:58.591Z,6.03
2018-07-21T15:12:26.258Z,2.93
2018-07-21T15:14:53.894Z,2.40
2018-07-21T15:17:21.542Z,2.50
2018-07-21T15:19:49.174Z,2.60
2018-07-21T15:22:16.841Z,3.13
2018-07-21T15:24:45.143Z,2.60
2018-07-21T15:27:12.910Z,2.70
2018-07-21T15:29:40.576Z,2.57
2018-07-21T15:32:08.268Z,2.57
2018-07-21T15:34:35.922Z,3.23
2018-07-21T15:37:03.579Z,2.60
2018-07-21T15:39:31.252Z,2.53
2018-07-21T15:41:58.928Z,2.53
2018-07-21T15:44:26.696Z,2.43
2018-07-21T15:46:54.350Z,2.73
2018-07-21T15:49:22.142Z,4.20
2018-07-21T15:51:49.991Z,3.70
2018-07-21T15:54:18.241Z,3.03
2018-07-21T15:56:45.909Z,3.23
2018-07-21T15:59:13.606Z,3.30
2018-07-21T16:01:41.272Z,3.17
2018-07-21T16:04:08.977Z,4.45
2018-07-21T16:06:36.666Z,3.95
2018-07-21T16:09:07.122Z,3.50
2018-07-21T16:11:34.850Z,3.30
2018-07-21T16:14:02.559Z,2.90
2018-07-21T16:16:30.213Z,3.95
2018-07-21T16:18:57.882Z,3.17
2018-07-21T16:21:26.139Z,4.37
2018-07-21T16:23:53.808Z,3.33
2018-07-21T16:26:21.476Z,10.07
2018-07-21T16:28:49.116Z,3.33
2018-07-21T16:31:16.818Z,3.57
2018-07-21T16:33:44.549Z,2.80
2018-07-21T16:36:12.235Z,3.73
2018-07-21T16:38:39.856Z,3.20
2018-07-21T16:41:07.575Z,3.10
2018-07-21T16:43:35.407Z,3.50
2018-07-21T16:46:03.192Z,3.43
2018-07-21T16:48:30.827Z,4.10
2018-07-21T16:50:58.468Z,3.47
2018-07-21T16:53:26.088Z,4.90
2018-07-21T16:55:53.717Z,3.17
2018-07-21T16:58:21.321Z,2.80
2018-07-21T17:00:49.001Z,4.25
2018-07-21T17:03:16.606Z,4.08
2018-07-21T17:05:44.242Z,3.30
2018-07-21T17:08:11.951Z,3.30
2018-07-21T17:10:39.555Z,2.80
2018-07-21T17:13:07.194Z,3.47
2018-07-21T17:15:34.858Z,3.50
2018-07-21T17:18:02.479Z,3.80
2018-07-21T17:20:30.114Z,3.52
2018-07-21T17:22:57.727Z,2.70
2018-07-21T17:25:25.374Z,3.00
2018-07-21T17:27:53.410Z,2.93
2018-07-21T17:30:21.068Z,3.37
2018-07-21T17:32:48.722Z,3.37
2018-07-21T17:35:16.367Z,3.03
2018-07-21T17:37:44.074Z,3.50
2018-07-21T17:40:11.787Z,3.67
2018-07-21T17:42:39.456Z,3.67
2018-07-21T17:45:07.152Z,4.27
2018-07-21T17:47:35.286Z,3.60
2018-07-21T17:50:02.990Z,3.43
2018-07-21T17:52:30.671Z,3.83
2018-07-21T17:54:58.331Z,6.30
2018-07-21T17:57:25.995Z,3.30
2018-07-21T17:59:53.867Z,3.60
2018-07-21T18:02:21.535Z,4.80
2018-07-21T18:04:49.211Z,4.27
2018-07-21T18:07:16.881Z,3.83
2018-07-21T18:09:44.523Z,3.40
2018-07-21T18:12:12.206Z,3.50
2018-07-21T18:14:39.836Z,3.10
2018-07-21T18:17:07.627Z,3.53
2018-07-21T18:19:35.315Z,3.80
2018-07-21T18:22:09.530Z,3.37
2018-07-21T18:24:37.181Z,3.33
2018-07-21T18:27:04.854Z,3.60
2018-07-21T18:29:32.620Z,3.63
2018-07-21T18:32:00.277Z,3.60
2018-07-21T18:34:27.929Z,3.30
2018-07-21T18:36:55.599Z,2.73
2018-07-21T18:39:23.310Z,3.37
2018-07-21T18:41:50.947Z,3.13
2018-07-21T18:44:18.623Z,3.77
2018-07-21T18:46:46.322Z,3.13
2018-07-21T18:49:13.983Z,3.80
2018-07-21T18:51:41.637Z,3.50
2018-07-21T18:54:09.285Z,3.83
2018-07-21T18:56:37.006Z,3.57
2018-07-21T18:59:04.890Z,5.15
2018-07-21T19:01:33.912Z,4.10
2018-07-21T19:04:01.923Z,4.43
2018-07-21T19:06:29.917Z,4.50
2018-07-21T19:09:03.841Z,4.03
2018-07-21T19:11:32.055Z,3.40
2018-07-21T19:14:00.251Z,3.67
2018-07-21T19:16:33.778Z,3.57
2018-07-21T19:19:02.708Z,3.80
2018-07-21T19:21:30.777Z,3.30
2018-07-21T19:23:59.604Z,3.30
2018-07-21T19:27:32.564Z,3.80
2018-07-21T19:30:01.279Z,3.60
2018-07-21T19:32:34.922Z,3.60
2018-07-21T19:35:02.896Z,4.03
2018-07-21T19:37:36.492Z,4.33
2018-07-21T19:40:05.085Z,3.83
2018-07-21T19:42:32.822Z,4.37
2018-07-21T19:45:00.491Z,4.10
2018-07-21T19:47:28.409Z,4.13
2018-07-21T19:49:56.187Z,3.63
2018-07-21T19:52:23.948Z,3.83
2018-07-21T19:54:51.653Z,4.23
2018-07-21T19:57:19.418Z,4.63
2018-07-21T19:59:47.218Z,4.27
2018-07-21T20:02:15.158Z,4.10
2018-07-21T20:04:43.345Z,4.90
2018-07-21T20:07:10.994Z,4.27
2018-07-21T20:09:39.758Z,5.00
2018-07-21T20:12:08.631Z,3.83
2018-07-21T20:14:36.266Z,4.73
2018-07-21T20:17:04.318Z,4.60
2018-07-21T20:19:32.230Z,4.20
2018-07-21T20:22:01.007Z,3.70
2018-07-21T20:24:28.649Z,3.63
2018-07-21T20:26:56.461Z,3.70
2018-07-21T20:29:24.596Z,4.47
2018-07-21T20:31:52.335Z,4.20
2018-07-21T20:34:20.553Z,3.97
2018-07-21T20:36:49.391Z,3.80
2018-07-21T20:39:17.389Z,3.73
2018-07-21T20:41:46.121Z,3.63
2018-07-21T20:44:14.240Z,3.90
2018-07-21T20:46:42.475Z,3.47
2018-07-21T20:49:10.259Z,3.60
2018-07-21T20:51:38.423Z,4.10
2018-07-21T20:54:06.242Z,3.93
2018-07-21T20:56:33.894Z,3.80
2018-07-21T20:59:01.726Z,4.17
2018-07-21T21:01:29.367Z,3.70
2018-07-21T21:03:57.005Z,3.57
2018-07-21T21:06:24.691Z,3.60
2018-07-21T21:08:52.318Z,3.60
2018-07-21T21:11:19.937Z,3.60
2018-07-21T21:13:47.602Z,3.50
2018-07-21T21:16:15.226Z,3.00
2018-07-21T21:18:42.983Z,3.27
2018-07-21T21:21:10.664Z,3.03
2018-07-21T21:23:38.285Z,3.43
2018-07-21T21:26:06.249Z,3.83
2018-07-21T21:28:33.916Z,4.30
2018-07-21T21:31:01.598Z,3.87
2018-07-21T21:33:29.270Z,3.87
2018-07-21T21:35:56.897Z,3.73
2018-07-21T21:38:24.522Z,4.10
2018-07-21T21:40:52.173Z,4.60
2018-07-21T21:43:19.835Z,3.93
2018-07-21T21:45:48.128Z,3.13
2018-07-21T21:48:16.209Z,3.17
2018-07-21T21:50:43.878Z,3.27
2018-07-21T21:53:11.566Z,3.80
2018-07-21T21:55:39.262Z,3.40
2018-07-21T21:58:07.303Z,3.00
2018-07-21T22:01:07.949Z,2.77
2018-07-21T22:03:37.078Z,3.53
2018-07-21T22:06:05.345Z,2.63
2018-07-21T22:08:34.047Z,3.03
2018-07-21T22:11:02.149Z,3.27
2018-07-21T22:13:29.992Z,3.83
2018-07-21T22:15:58.495Z,3.20
2018-07-21T22:18:26.690Z,2.70
2018-07-21T22:20:54.371Z,2.83
2018-07-21T22:23:22.327Z,3.10
2018-07-21T22:25:50.022Z,3.33
2018-07-21T22:28:17.742Z,3.73
2018-07-21T22:30:45.435Z,3.13
2018-07-21T22:33:13.110Z,3.60
2018-07-21T22:35:41.167Z,3.50
2018-07-21T22:38:08.875Z,4.80
2018-07-21T22:40:36.583Z,3.40
2018-07-21T22:43:04.262Z,3.17
2018-07-21T22:45:32.555Z,3.00
2018-07-21T22:48:00.246Z,4.30
2018-07-21T22:50:27.955Z,3.70
2018-07-21T22:52:55.961Z,3.10
2018-07-21T22:55:23.678Z,3.90
2018-07-21T22:57:51.330Z,3.13
2018-07-21T23:00:19.318Z,3.43
2018-07-21T23:02:47.483Z,5.33
2018-07-21T23:05:15.217Z,3.93
2018-07-21T23:07:43.026Z,3.83
2018-07-21T23:10:10.823Z,3.03
2018-07-21T23:12:38.498Z,3.57
2018-07-21T23:15:07.351Z,3.70
2018-07-21T23:17:35.104Z,3.53
2018-07-21T23:20:02.849Z,3.37
2018-07-21T23:22:30.466Z,3.00
2018-07-21T23:24:58.174Z,3.20
2018-07-21T23:27:25.906Z,3.73
2018-07-21T23:29:53.619Z,3.63
2018-07-21T23:32:21.295Z,3.80
2018-07-21T23:34:48.964Z,3.67
2018-07-21T23:37:17.067Z,9.47
2018-07-21T23:39:45.506Z,4.03
2018-07-21T23:42:13.167Z,4.30
2018-07-21T23:44:40.951Z,4.63
2018-07-21T23:47:08.702Z,3.50
2018-07-21T23:49:36.376Z,3.57
2018-07-21T23:52:04.092Z,3.43
2018-07-21T23:54:32.181Z,3.57
2018-07-21T23:56:59.866Z,3.80
2018-07-21T23:59:27.539Z,3.43
